Rouen Vallée de Seine Airport

LFOP · Sena Marítimo, Normandy, França

História da METAR LFOP · Rouen Airport

Abaixo você vê METARs dos últimos dias. Selecione um ano para navegar pelos METARs mais antigos, a partir do ano 2007.

15 de abril de 2024

Hora Código Clima Temp. Visibilidade Tecto Vento METAR/SPECI
22:30
V
8 °C 10 km+ - 270° 270° 11 kt METAR LFOP 152030Z AUTO 27011KT 250V310 9999 SCT036 08/03 Q1013
22:00
V
8 °C 10 km+ - 280° 280° 15 - 27 kt METAR LFOP 152000Z AUTO 28015G27KT CAVOK 08/03 Q1013
21:30
V
7 °C 10 km+ 3.900 ft 280° 280° 16 kt METAR LFOP 151930Z AUTO 28016KT 240V300 9999 SCT031 BKN039 BKN094 07/03 Q1012 TEMPO 3000 SHRA BKN014 BKN020CB BECMG 25015G30KT
21:00
V
7 °C 10 km+ 7.600 ft 280° 280° 12 kt METAR LFOP 151900Z AUTO 28012KT 9999 FEW025/// SCT037/// BKN076/// //////TCU 07/03 Q1012 TEMPO 3000 SHRA BKN014 BKN020CB BECMG 25015G30KT
20:30
V
9 °C 10 km+ - 280° 280° 17 kt METAR LFOP 151830Z AUTO 28017KT 9999 FEW043/// ///TCU 09/02 Q1012 TEMPO 3000 SHRA BKN014 BKN020CB BECMG 25015G30KT
20:00
V
9 °C 10 km+ 4.800 ft 280° 280° 19 - 30 kt METAR LFOP 151800Z AUTO 28019G30KT 9999 SCT037 BKN048 BKN062 09/00 Q1012 TEMPO 3000 SHRA BKN014 BKN020CB
19:30
V
9 °C 10 km+ 4.400 ft 290° 290° 18 kt METAR LFOP 151730Z AUTO 29018KT 9999 BKN044 BKN058 09/02 Q1012 TEMPO 3000 SHRA BKN014 BKN020CB BECMG 25015G30KT
19:00
V
10 °C 10 km+ 4.300 ft 280° 280° 19 - 31 kt METAR LFOP 151700Z AUTO 28019G31KT 9999 BKN043 10/02 Q1011 TEMPO 3000 SHRA BKN014 BKN020CB
18:30
V
10 °C 10 km+ - 280° 280° 19 - 31 kt METAR LFOP 151630Z AUTO 28019G31KT 250V310 9999 SCT048 SCT056 10/02 Q1011 TEMPO 3000 SHRA BKN014 BKN020CB
18:00
V
10 °C 10 km+ - 290° 290° 23 - 37 kt METAR LFOP 151600Z AUTO 29023G37KT 9999 FEW049 10/01 Q1011 TEMPO 3000 SHRA BKN014 BKN020CB
17:30
V
10 °C 10 km+ - 290° 290° 23 - 37 kt METAR LFOP 151530Z AUTO 29023G37KT 9999 FEW040 10/02 Q1011 TEMPO 3000 SHRA BKN014 BKN020CB
17:00
V
10 °C 10 km+ 3.800 ft 290° 290° 20 - 31 kt METAR LFOP 151500Z AUTO 29020G31KT 9999 FEW023 BKN038 BKN046 10/04 Q1011 TEMPO 3000 SHRA BKN014 BKN020CB
16:30
M
9 °C 10 km+ 1.600 ft 290° 290° 10 kt METAR LFOP 151430Z AUTO 29010KT 260V330 9999 OVC016 09/07 Q1011 TEMPO 3000 SHRA BKN014 BKN020CB BECMG 25015G30KT
16:00
M
9 °C 10 km+ 1.800 ft 270° 270° 15 kt METAR LFOP 151400Z AUTO 27015KT 240V300 9999 -RADZ BKN018/// BKN032/// BKN041/// ///TCU 09/07 Q1011 TEMPO 3000 SHRA BKN014 BKN020CB BECMG 25017G30KT
15:30
M
8 °C 8 km 1.800 ft 270° 270° 15 - 25 kt METAR LFOP 151330Z AUTO 27015G25KT 240V300 8000 -RA SCT012/// BKN018/// BKN027/// ///CB 08/06 Q1011 TEMPO 3000 SHRA BKN014 BKN020CB
15:00
M
7 °C 5 km 1.500 ft 280° 280° 24 - 44 kt METAR LFOP 151300Z AUTO 28024G44KT 230V320 5000 RA BR BKN015/// BKN020/// BKN031/// //////CB 07/05 Q1011 TEMPO 1000 +SHRAGS BKN014 BKN020CB BECMG 25017G30KT
14:30
M
10 °C 7 km 2.300 ft 240° 240° 22 - 34 kt METAR LFOP 151230Z AUTO 24022G34KT 7000 -RA BKN023/// OVC030/// //////CB 10/08 Q1010 TEMPO VRB25G45KT 3000 SHRA BKN014 BKN020CB
14:00
M
11 °C 10 km+ 2.600 ft 240° 240° 21 - 33 kt METAR LFOP 151200Z AUTO 24021G33KT 9999 SCT019 OVC026 11/08 Q1010 TEMPO VRB25G45KT 1000 +SHRAGS BKN009 BKN014CB OVC020
13:30
M
10 °C 10 km+ 1.600 ft 240° 240° 20 - 32 kt METAR LFOP 151130Z AUTO 24020G32KT 9999 BKN016 OVC025 10/08 Q1011 TEMPO VRB25G45KT 1000 +SHRAGS BKN009 BKN014CB OVC020
13:00
M
10 °C 10 km+ 1.700 ft 230° 230° 20 - 32 kt METAR LFOP 151100Z AUTO 23020G32KT 9999 -RA BKN017 OVC045 10/08 Q1012 TEMPO VRB25G45KT 1000 +SHRAGS BKN009 BKN014CB OVC020
12:30
M
10 °C 10 km+ 2.200 ft 230° 230° 18 kt METAR LFOP 151030Z AUTO 23018KT 9999 OVC022 10/07 Q1012 TEMPO VRB25G45KT 1000 +SHRAGS BKN009 BKN014CB OVC020
12:00
M
10 °C 10 km+ 2.600 ft 240° 240° 20 kt METAR LFOP 151000Z AUTO 24020KT 9999 OVC026 10/06 Q1012 TEMPO 4000 SHRA BKN014 BKN020CB BECMG 29020G40KT
11:30
M
11 °C 10 km+ 2.100 ft 230° 230° 17 kt METAR LFOP 150930Z AUTO 23017KT 200V260 9999 BKN021 OVC026 11/07 Q1013 TEMPO 4000 SHRA BKN014 BKN020CB BECMG 29020G40KT
11:00
M
9 °C 10 km+ 2.300 ft 220° 220° 17 kt METAR LFOP 150900Z AUTO 22017KT 9999 BKN023 BKN033 OVC042 09/06 Q1013 TEMPO 4000 SHRA BKN014 BKN020CB BECMG 29020G40KT
10:30
M
9 °C 10 km+ 2.300 ft 220° 220° 17 kt METAR LFOP 150830Z AUTO 22017KT 9999 FEW017 BKN023 BKN037 09/06 Q1014 TEMPO 4000 SHRA BKN014 BKN020CB BECMG 29020G40KT
10:00
V
9 °C 10 km+ - 210° 210° 17 kt METAR LFOP 150800Z AUTO 21017KT 9999 FEW016 SCT041 09/06 Q1014 TEMPO 4000 SHRA BKN014 BKN020CB BECMG 29020G40KT
09:30
V
8 °C 10 km+ 3.400 ft 220° 220° 15 kt METAR LFOP 150730Z AUTO 22015KT 9999 OVC034 08/06 Q1015 TEMPO 4000 SHRA BKN014 BKN020CB BECMG 29020G40KT
09:00
V
8 °C 10 km+ 3.200 ft 230° 230° 11 kt METAR LFOP 150700Z AUTO 23011KT 9999 BKN032 08/07 Q1015 BECMG 25015G30KT
08:30
V
7 °C 10 km+ - 230° 230° 10 kt METAR LFOP 150630Z AUTO 23010KT CAVOK 07/06 Q1016 BECMG 25015G30KT
08:00
V
6 °C 10 km+ - 240° 240° 11 kt METAR LFOP 150600Z AUTO 24011KT CAVOK 06/06 Q1016 TEMPO BKN009 BECMG 25015G30KT
07:30
V
5 °C 10 km+ - 240° 240° 9 kt METAR LFOP 150530Z AUTO 24009KT 9999 FEW007 05/05 Q1016 TEMPO BKN009 BECMG 25015G30KT
07:00
V
5 °C 10 km+ - 240° 240° 9 kt METAR LFOP 150500Z AUTO 24009KT CAVOK 05/05 Q1016
06:30
V
6 °C 10 km+ - 250° 250° 10 kt METAR LFOP 150430Z AUTO 25010KT 9999 FEW007 06/05 Q1016
06:00
V
6 °C 10 km+ - 260° 260° 8 kt METAR LFOP 150400Z AUTO 26008KT 9999 SCT005 SCT016 06/05 Q1017
05:30
V
6 °C 10 km+ - 250° 250° 7 kt METAR LFOP 150330Z AUTO 25007KT 9999 FEW004 06/05 Q1017
05:00
V
6 °C 10 km+ - 250° 250° 7 kt METAR LFOP 150300Z AUTO 25007KT 9999 FEW018 06/05 Q1018
04:30
V
6 °C 10 km+ - 250° 250° 7 kt METAR LFOP 150230Z AUTO 25007KT CAVOK 06/06 Q1018
04:00
V
6 °C 10 km+ - 250° 250° 6 kt METAR LFOP 150200Z AUTO 25006KT CAVOK 06/06 Q1018
03:30
V
6 °C 10 km+ - 260° 260° 6 kt METAR LFOP 150130Z AUTO 26006KT 9999 FEW013 06/06 Q1018
03:00
M
6 °C 10 km+ 2.200 ft 250° 250° 6 kt METAR LFOP 150100Z AUTO 25006KT 9999 FEW014 BKN022 06/06 Q1019
02:30
V
6 °C 10 km+ - 260° 260° 4 kt METAR LFOP 150030Z AUTO 26004KT CAVOK 06/05 Q1019
02:00
V
7 °C 10 km+ - 270° 270° 5 kt METAR LFOP 150000Z AUTO 27005KT CAVOK 07/05 Q1019
01:30
V
7 °C 10 km+ - 270° 270° 7 kt METAR LFOP 142330Z AUTO 27007KT CAVOK 07/05 Q1020
01:00
V
7 °C 10 km+ - 270° 270° 7 kt METAR LFOP 142300Z AUTO 27007KT CAVOK 07/06 Q1020
00:30
V
7 °C 10 km+ - 250° 250° 7 kt METAR LFOP 142230Z AUTO 25007KT CAVOK 07/05 Q1020
00:00
V
8 °C 10 km+ - 280° 280° 7 kt METAR LFOP 142200Z AUTO 28007KT CAVOK 08/05 Q1020

14 de abril de 2024

Hora Código Clima Temp. Visibilidade Tecto Vento METAR/SPECI
23:30
V
9 °C 10 km+ - 260° 260° 4 kt METAR LFOP 142130Z AUTO 26004KT 9999 //////TCU 09/05 Q1020
23:00
V
9 °C 10 km+ - 290° 290° 8 kt METAR LFOP 142100Z AUTO 29008KT 9999 ///CB 09/05 Q1021
22:30
V
10 °C 10 km+ - 300° 300° 6 kt METAR LFOP 142030Z AUTO 30006KT 9999 RA //////CB 10/06 Q1021
22:00
V
11 °C 10 km+ - 310° 310° 5 kt METAR LFOP 142000Z AUTO 31005KT 9999 //////CB 11/05 Q1021
21:30
V
11 °C 10 km+ - 320° 320° 8 kt METAR LFOP 141930Z AUTO 32008KT CAVOK 11/06 Q1021
21:00
V
12 °C 10 km+ 6.000 ft 320° 320° 9 kt METAR LFOP 141900Z AUTO 32009KT 9999 FEW036 BKN060 OVC100 12/06 Q1021
20:30
V
12 °C 10 km+ - 350° 350° 5 kt METAR LFOP 141830Z AUTO 35005KT CAVOK 12/07 Q1021
20:00
V
13 °C 10 km+ - 320° 320° 5 kt METAR LFOP 141800Z AUTO 32005KT 290V360 CAVOK 13/08 Q1021 NOSIG
19:30
V
13 °C 10 km+ - 290° 290° 7 kt METAR LFOP 141730Z AUTO 29007KT 260V320 9999 -RA NSC 13/07 Q1021 NOSIG
19:00
V
14 °C 10 km+ - 290° 290° 7 kt METAR LFOP 141700Z AUTO 29007KT 9999 -RA NSC 14/07 Q1021 NOSIG
18:30
V
14 °C 10 km+ - 290° 290° 6 kt METAR LFOP 141630Z AUTO 29006KT 260V320 CAVOK 14/06 Q1021 NOSIG
18:00
V
15 °C 10 km+ - 270° 270° 6 kt METAR LFOP 141600Z AUTO 27006KT CAVOK 15/07 Q1021 NOSIG
17:30
V
15 °C 10 km+ - 270° 270° 7 kt METAR LFOP 141530Z AUTO 27007KT 250V310 CAVOK 15/06 Q1022 NOSIG
17:00
V
16 °C 10 km+ - 240° 240° 7 kt METAR LFOP 141500Z AUTO 24007KT CAVOK 16/07 Q1022 TEMPO 32010KT
16:30
V
16 °C 10 km+ - 280° 280° 4 kt METAR LFOP 141430Z AUTO 28004KT 220V320 CAVOK 16/06 Q1022 NOSIG
16:00
V
16 °C 10 km+ - 230° 230° 4 kt METAR LFOP 141400Z AUTO 23004KT 140V280 9999 SCT035 16/08 Q1023 NOSIG
15:30
V
15 °C 10 km+ - 260° 260° 4 kt METAR LFOP 141330Z AUTO 26004KT 220V320 9999 FEW034 SCT230 15/08 Q1023 NOSIG
15:00
V
15 °C 10 km+ - 250° 250° 4 kt METAR LFOP 141300Z AUTO 25004KT 180V310 9999 FEW031 15/09 Q1023 NOSIG
14:30
V
15 °C 10 km+ - 240° 240° 4 kt METAR LFOP 141230Z AUTO 24004KT 180V280 9999 SCT031 SCT180 15/09 Q1024 NOSIG
14:00
V
15 °C 10 km+ - 270° 270° 4 kt METAR LFOP 141200Z AUTO 27004KT 210V330 9999 FEW029 15/08 Q1024 NOSIG
13:30
M
15 °C 10 km+ 2.800 ft 230° 230° 5 kt METAR LFOP 141130Z AUTO 23005KT 160V300 9999 BKN028 15/08 Q1024 NOSIG
13:00
V
14 °C 10 km+ - 230° 230° 5 kt METAR LFOP 141100Z AUTO 23005KT 200V290 9999 FEW027 14/08 Q1025 NOSIG
12:30
V
13 °C 10 km+ - 310° 310° 6 kt METAR LFOP 141030Z AUTO 31006KT 270V350 9999 FEW026 SCT240 13/08 Q1025 NOSIG
12:00
M
13 °C 10 km+ 2.400 ft 260° 260° 6 kt METAR LFOP 141000Z AUTO 26006KT 230V300 9999 BKN024 13/08 Q1025 NOSIG
11:30
M
12 °C 10 km+ 2.000 ft 260° 260° 6 kt METAR LFOP 140930Z AUTO 26006KT 220V320 9999 OVC020 12/07 Q1025 NOSIG
11:00
M
12 °C 10 km+ 1.700 ft 260° 260° 4 kt METAR LFOP 140900Z AUTO 26004KT 190V310 9999 BKN017 OVC022 12/08 Q1025 NOSIG
10:30
M
11 °C 10 km+ 1.300 ft Var Var 3 kt METAR LFOP 140830Z AUTO VRB03KT 9999 OVC013 11/08 Q1025 BECMG BKN018
10:00
M
11 °C 10 km+ 1.200 ft 260° 260° 3 kt METAR LFOP 140800Z AUTO 26003KT 240V310 9999 OVC012 11/08 Q1026 BECMG BKN018
09:30
I
10 °C 10 km+ 900 ft 280° 280° 6 kt METAR LFOP 140730Z AUTO 28006KT 9999 OVC009 10/08 Q1026 BECMG BKN018
09:00
M
10 °C 10 km+ 1.000 ft 290° 290° 5 kt METAR LFOP 140700Z AUTO 29005KT 250V320 9999 OVC010 10/09 Q1026 BECMG BKN018
08:30
M
10 °C 10 km+ 1.100 ft 290° 290° 6 kt METAR LFOP 140630Z AUTO 29006KT 9999 OVC011 10/08 Q1025 BECMG BKN018
08:00
I
10 °C 10 km+ 900 ft 280° 280° 7 kt METAR LFOP 140600Z AUTO 28007KT 9999 BKN009 OVC014 10/09 Q1025 TEMPO SCT008 BKN011
07:30
M
10 °C 10 km+ 1.100 ft 290° 290° 5 kt METAR LFOP 140530Z AUTO 29005KT 9999 BKN011 BKN018 10/10 Q1025
07:00
M
10 °C 10 km+ 1.400 ft 290° 290° 5 kt METAR LFOP 140500Z AUTO 29005KT 9999 FEW008 OVC014 10/10 Q1025
06:30
I
11 °C 9 km 600 ft 280° 280° 5 kt METAR LFOP 140430Z AUTO 28005KT 9000 BKN006 OVC013 11/10 Q1025
06:00
I
11 °C 10 km+ 700 ft 290° 290° 5 kt METAR LFOP 140400Z AUTO 29005KT 250V320 9999 BKN007 OVC012 11/10 Q1025
05:30
I
11 °C 10 km+ 500 ft 290° 290° 7 kt METAR LFOP 140330Z AUTO 29007KT 240V320 9999 BKN005 BKN015 11/10 Q1025
05:00
I
11 °C 10 km+ 500 ft 310° 310° 8 kt METAR LFOP 140300Z AUTO 31008KT 9999 OVC005 11/10 Q1025
04:30
L
10 °C 10 km+ 400 ft 300° 300° 8 kt METAR LFOP 140230Z AUTO 30008KT 9999 OVC004 10/10 Q1025
04:00
L
10 °C 9 km 400 ft 320° 320° 9 kt METAR LFOP 140200Z AUTO 32009KT 9000 OVC004 10/10 Q1025
03:30
L
10 °C 7 km 400 ft 310° 310° 8 kt METAR LFOP 140130Z AUTO 31008KT 280V340 7000 OVC004 10/10 Q1024
03:00
I
10 °C 10 km+ 500 ft 310° 310° 11 kt METAR LFOP 140100Z AUTO 31011KT 9999 BKN005 BKN010 10/09 Q1024
02:30
V
10 °C 10 km+ - 300° 300° 6 kt METAR LFOP 140030Z AUTO 30006KT 260V340 CAVOK 10/07 Q1024
02:00
V
11 °C 10 km+ - 300° 300° 3 kt METAR LFOP 140000Z AUTO 30003KT 250V340 CAVOK 11/06 Q1024
01:30
V
12 °C 10 km+ - 280° 280° 6 kt METAR LFOP 132330Z AUTO 28006KT 250V310 CAVOK 12/06 Q1024
01:00
V
12 °C 10 km+ - 290° 290° 9 kt METAR LFOP 132300Z AUTO 29009KT CAVOK 12/05 Q1024
00:30
V
13 °C 10 km+ - 290° 290° 8 kt METAR LFOP 132230Z AUTO 29008KT CAVOK 13/05 Q1024
00:00
V
13 °C 10 km+ - 300° 300° 10 kt METAR LFOP 132200Z AUTO 30010KT CAVOK 13/05 Q1024

13 de abril de 2024

Hora Código Clima Temp. Visibilidade Tecto Vento METAR/SPECI
23:30
V
14 °C 10 km+ - 300° 300° 9 kt METAR LFOP 132130Z AUTO 30009KT CAVOK 14/09 Q1024
23:00
V
15 °C 10 km+ - 280° 280° 10 kt METAR LFOP 132100Z AUTO 28010KT CAVOK 15/08 Q1024
22:30
V
16 °C 10 km+ - 280° 280° 8 kt METAR LFOP 132030Z AUTO 28008KT CAVOK 16/11 Q1024
22:00
V
16 °C 10 km+ - 290° 290° 8 kt METAR LFOP 132000Z AUTO 29008KT CAVOK 16/11 Q1024
21:30
V
17 °C 10 km+ - 290° 290° 7 kt METAR LFOP 131930Z AUTO 29007KT CAVOK 17/12 Q1023
21:00
V
17 °C 10 km+ - 290° 290° 7 kt METAR LFOP 131900Z AUTO 29007KT CAVOK 17/12 Q1023
20:30
V
18 °C 10 km+ - 290° 290° 9 kt METAR LFOP 131830Z AUTO 29009KT CAVOK 18/12 Q1023
20:00
V
20 °C 10 km+ - 290° 290° 9 kt METAR LFOP 131800Z AUTO 29009KT CAVOK 20/13 Q1023 NOSIG
19:30
V
21 °C 10 km+ - 280° 280° 10 kt METAR LFOP 131730Z AUTO 28010KT CAVOK 21/13 Q1023 NOSIG
19:00
V
23 °C 10 km+ - 240° 240° 11 kt METAR LFOP 131700Z AUTO 24011KT 200V290 CAVOK 23/13 Q1022 NOSIG
18:30
V
23 °C 10 km+ - 260° 260° 10 kt METAR LFOP 131630Z AUTO 26010KT CAVOK 23/13 Q1023 NOSIG
18:00
V
23 °C 10 km+ - 240° 240° 9 kt METAR LFOP 131600Z AUTO 24009KT CAVOK 23/14 Q1023 NOSIG
17:30
V
24 °C 10 km+ - 210° 210° 13 kt METAR LFOP 131530Z AUTO 21013KT CAVOK 24/14 Q1023 NOSIG
17:00
V
24 °C 10 km+ - 220° 220° 12 kt METAR LFOP 131500Z AUTO 22012KT 190V250 CAVOK 24/14 Q1023 NOSIG
16:30
V
23 °C 10 km+ - 230° 230° 14 kt METAR LFOP 131430Z AUTO 23014KT 200V260 CAVOK 23/13 Q1023 NOSIG
16:00
V
24 °C 10 km+ - 210° 210° 12 kt METAR LFOP 131400Z AUTO 21012KT CAVOK 24/13 Q1023 NOSIG
15:30
V
23 °C 10 km+ - 200° 200° 15 kt METAR LFOP 131330Z AUTO 20015KT CAVOK 23/12 Q1024 NOSIG
15:00
V
23 °C 10 km+ - 190° 190° 14 kt METAR LFOP 131300Z AUTO 19014KT CAVOK 23/13 Q1024 NOSIG
14:30
V
23 °C 10 km+ - 200° 200° 12 kt METAR LFOP 131230Z AUTO 20012KT 170V230 CAVOK 23/14 Q1024 NOSIG
14:00
V
22 °C 10 km+ - 190° 190° 11 kt METAR LFOP 131200Z AUTO 19011KT 160V230 CAVOK 22/15 Q1025 NOSIG
13:30
V
22 °C 10 km+ - 200° 200° 10 kt METAR LFOP 131130Z AUTO 20010KT CAVOK 22/14 Q1025 NOSIG
13:00
V
21 °C 10 km+ - 200° 200° 11 kt METAR LFOP 131100Z AUTO 20011KT CAVOK 21/15 Q1025 NOSIG
12:30
V
20 °C 10 km+ - 200° 200° 9 kt METAR LFOP 131030Z AUTO 20009KT CAVOK 20/15 Q1026 NOSIG
12:00
V
19 °C 10 km+ - 170° 170° 7 kt METAR LFOP 131000Z AUTO 17007KT 140V200 CAVOK 19/15 Q1026 NOSIG
11:30
V
18 °C 10 km+ - 180° 180° 8 kt METAR LFOP 130930Z AUTO 18008KT CAVOK 18/13 Q1026 NOSIG
11:00
V
18 °C 10 km+ - 190° 190° 7 kt METAR LFOP 130900Z AUTO 19007KT CAVOK 18/13 Q1026 NOSIG
10:30
V
17 °C 10 km+ - 160° 160° 5 kt METAR LFOP 130830Z AUTO 16005KT CAVOK 17/13 Q1027 BECMG 23010KT
10:00
V
15 °C 10 km+ - 170° 170° 4 kt METAR LFOP 130800Z AUTO 17004KT CAVOK 15/13 Q1027 NOSIG
09:30
V
15 °C 10 km+ - 160° 160° 5 kt METAR LFOP 130730Z AUTO 16005KT CAVOK 15/13 Q1027 NOSIG
09:00
V
14 °C 10 km+ - 150° 150° 5 kt METAR LFOP 130700Z AUTO 15005KT CAVOK 14/13 Q1027 NOSIG
08:30
V
12 °C 10 km+ - 160° 160° 4 kt METAR LFOP 130630Z AUTO 16004KT CAVOK 12/12 Q1027 NOSIG
08:00
V
11 °C 10 km+ - 160° 160° 3 kt METAR LFOP 130600Z AUTO 16003KT CAVOK 11/11 Q1027
Relatar uma mudança